Time;durP1;ratioP1;P1;durP2;ratioP2;P2;SDS_P1;SDS_P2;PMS_P1;PMS_P2;Temp;Humidity;BMP_temperature;BMP_pressure;BME280_temperature;BME280_humidity;BME280_pressure;Samples;Min_cycle;Max_cycle;Signal;HPM_P1;HPM_P2
2020/12/13 00:02:10;;;;;;;26.15;19.88;;;;;;;5.84;73.72;99651.03;5039020;28;20050;-71
2020/12/13 00:04:37;;;;;;;27.92;21.50;;;;;;;5.78;73.94;99648.44;5039285;28;20064;-71
2020/12/13 00:07:03;;;;;;;28.63;20.33;;;;;;;5.81;74.35;99656.28;5024926;28;20124;-71
2020/12/13 00:09:29;;;;;;;25.65;20.05;;;;;;;5.85;73.86;99660.66;5042566;28;20388;-71
2020/12/13 00:11:54;;;;;;;25.58;19.63;;;;;;;5.89;74.08;99665.91;5039824;28;20048;-71
2020/12/13 00:14:19;;;;;;;27.50;20.75;;;;;;;5.91;73.80;99666.75;5038940;28;20045;-71
2020/12/13 00:16:45;;;;;;;25.80;18.77;;;;;;;5.87;73.87;99658.91;5040454;28;20110;-71
2020/12/13 00:19:10;;;;;;;26.85;19.92;;;;;;;5.85;74.21;99666.75;5042500;28;20041;-71
2020/12/13 00:21:35;;;;;;;27.83;20.13;;;;;;;5.83;74.71;99667.63;5042331;28;20033;-71
2020/12/13 00:24:01;;;;;;;26.92;21.02;;;;;;;5.79;74.71;99665.88;5041371;28;20040;-71
2020/12/13 00:26:26;;;;;;;29.58;21.35;;;;;;;5.83;74.43;99667.63;5039059;28;20037;-71
2020/12/13 00:28:51;;;;;;;31.35;22.13;;;;;;;5.89;74.13;99668.53;5041130;28;20535;-71
2020/12/13 00:31:16;;;;;;;30.20;21.20;;;;;;;5.89;73.90;99671.13;5042301;28;20072;-71
2020/12/13 00:33:43;;;;;;;30.38;22.60;;;;;;;5.86;74.23;99675.50;5041184;28;20081;-71
2020/12/13 00:36:08;;;;;;;28.80;22.33;;;;;;;5.90;74.55;99674.63;5038887;28;20076;-71
2020/12/13 00:38:33;;;;;;;30.10;21.20;;;;;;;5.92;73.95;99678.09;5038999;28;20060;-71
2020/12/13 00:40:59;;;;;;;29.60;22.70;;;;;;;5.91;74.13;99686.84;5044948;28;20533;-71
2020/12/13 00:43:24;;;;;;;27.80;20.65;;;;;;;5.88;74.11;99676.38;5045854;28;20040;-71
2020/12/13 00:45:49;;;;;;;27.88;19.08;;;;;;;5.82;74.72;99677.25;5044132;28;20170;-71
2020/12/13 00:48:14;;;;;;;25.38;17.92;;;;;;;5.79;74.96;99686.81;5035207;28;20115;-71
2020/12/13 00:50:40;;;;;;;25.80;18.23;;;;;;;5.75;75.08;99693.81;5024548;28;20044;-72
2020/12/13 00:53:06;;;;;;;27.02;20.80;;;;;;;5.78;75.24;99685.97;5017070;28;20033;-71
2020/12/13 00:55:32;;;;;;;24.70;17.63;;;;;;;5.77;75.16;99693.84;5040813;28;20175;-70
2020/12/13 00:57:58;;;;;;;22.20;16.10;;;;;;;5.70;75.41;99690.34;5025174;28;20539;-70
2020/12/13 01:00:24;;;;;;;25.00;17.38;;;;;;;5.69;75.34;99694.69;5042160;28;20128;-70
2020/12/13 01:02:49;;;;;;;28.10;21.25;;;;;;;5.76;75.22;99702.53;5044007;28;20059;-71
2020/12/13 01:05:15;;;;;;;24.40;16.92;;;;;;;5.77;75.15;99699.94;5045648;28;20124;-71
2020/12/13 01:07:42;;;;;;;22.45;17.13;;;;;;;5.77;75.32;99701.69;5045042;28;20074;-71
2020/12/13 01:10:08;;;;;;;22.30;16.73;;;;;;;5.79;74.90;99713.91;5041984;28;20491;-71
2020/12/13 01:12:33;;;;;;;21.10;16.20;;;;;;;5.71;75.11;99706.06;5041931;28;20068;-71
2020/12/13 01:14:58;;;;;;;21.85;15.50;;;;;;;5.66;75.66;99712.16;5045327;28;20479;-71
2020/12/13 01:17:24;;;;;;;23.73;17.45;;;;;;;5.61;75.72;99716.53;5045554;28;20579;-71
2020/12/13 01:19:49;;;;;;;22.38;17.00;;;;;;;5.62;76.01;99713.88;5045589;28;20494;-71
2020/12/13 01:22:15;;;;;;;21.60;16.33;;;;;;;5.64;75.56;99719.13;5045181;28;20068;-70
2020/12/13 01:24:40;;;;;;;22.58;16.02;;;;;;;5.61;75.54;99716.53;5044660;28;20075;-71
2020/12/13 01:27:06;;;;;;;21.33;16.30;;;;;;;5.56;75.81;99719.13;5041822;28;20585;-71
2020/12/13 01:29:31;;;;;;;21.92;14.88;;;;;;;5.60;75.64;99722.59;5041866;28;20033;-71
2020/12/13 01:31:56;;;;;;;20.05;14.70;;;;;;;5.61;75.90;99720.00;5040032;28;20064;-70
2020/12/13 01:34:22;;;;;;;23.70;16.45;;;;;;;5.52;76.17;99729.59;5041587;28;20037;-71
2020/12/13 01:36:47;;;;;;;20.60;15.65;;;;;;;5.46;76.52;99727.84;5043422;28;20399;-71
2020/12/13 01:39:12;;;;;;;22.27;15.25;;;;;;;5.51;76.14;99733.09;5045015;28;20503;-70
2020/12/13 01:41:38;;;;;;;20.13;14.75;;;;;;;5.53;76.18;99732.22;5044559;28;20036;-71
2020/12/13 01:44:05;;;;;;;19.05;15.20;;;;;;;5.58;76.11;99740.94;5015936;28;20041;-71
2020/12/13 01:46:31;;;;;;;22.67;16.58;;;;;;;5.58;76.03;99734.81;5040845;28;20040;-71
2020/12/13 01:49:06;;;;;;;24.63;17.27;;;;;;;5.52;76.02;99740.06;5042004;28;20128;-71
2020/12/13 01:52:39;;;;;;;21.15;15.93;;;;;;;5.60;75.63;99741.78;5040659;28;20515;-70
2020/12/13 01:54:32;;;;;;;21.75;15.43;;;;;;;5.67;75.77;99740.06;5040866;28;20057;-71
2020/12/13 01:57:01;;;;;;;22.85;17.70;;;;;;;5.71;75.16;99742.72;5044388;28;20041;-71
2020/12/13 01:59:29;;;;;;;27.92;19.33;;;;;;;5.78;75.05;99743.56;5026863;28;20068;-71
2020/12/13 02:02:02;;;;;;;23.75;19.13;;;;;;;5.78;75.15;99745.31;5042123;28;20411;-71
2020/12/13 02:04:28;;;;;;;22.30;15.45;;;;;;;5.80;74.88;99746.19;5041002;28;20041;-71
2020/12/13 02:06:55;;;;;;;21.77;16.63;;;;;;;5.78;74.74;99745.31;5022492;28;20022;-70
2020/12/13 02:09:22;;;;;;;27.33;20.42;;;;;;;5.74;74.58;99746.16;5041083;28;20037;-71
2020/12/13 02:11:48;;;;;;;24.80;16.65;;;;;;;5.74;74.97;99740.94;5042506;28;20049;-71
2020/12/13 02:14:14;;;;;;;24.50;17.30;;;;;;;5.71;74.82;99747.03;5044271;28;20123;-71
2020/12/13 02:16:43;;;;;;;22.67;16.60;;;;;;;5.74;75.38;99751.41;5043880;28;20116;-71
2020/12/13 02:19:08;;;;;;;21.75;16.15;;;;;;;5.75;75.19;99755.78;5040687;28;20040;-71
2020/12/13 02:21:33;;;;;;;23.30;17.27;;;;;;;5.74;75.67;99754.03;5040854;28;20100;-70
2020/12/13 02:23:59;;;;;;;24.27;16.90;;;;;;;5.75;75.19;99758.41;5048991;28;20518;-71
2020/12/13 02:26:25;;;;;;;23.92;16.70;;;;;;;5.65;76.07;99761.00;5044153;28;20045;-71
2020/12/13 02:28:50;;;;;;;22.67;16.42;;;;;;;5.65;75.85;99763.63;5042086;28;20040;-71
2020/12/13 02:31:15;;;;;;;26.65;19.70;;;;;;;5.61;76.01;99761.88;5040591;28;20536;-70
2020/12/13 02:33:41;;;;;;;21.23;15.07;;;;;;;5.66;76.02;99768.00;5040967;28;20048;-71
2020/12/13 02:36:07;;;;;;;20.08;15.40;;;;;;;5.71;75.88;99768.88;5043994;28;20075;-71
2020/12/13 02:38:32;;;;;;;24.20;17.02;;;;;;;5.75;75.48;99774.13;5044007;28;20091;-71
2020/12/13 02:40:59;;;;;;;22.67;17.10;;;;;;;5.76;75.62;99770.63;5040767;28;20036;-71
2020/12/13 02:43:24;;;;;;;24.73;18.65;;;;;;;5.77;75.32;99773.25;5040175;28;20036;-71
2020/12/13 02:45:50;;;;;;;24.20;18.80;;;;;;;5.76;74.63;99766.25;5042442;28;20412;-71
2020/12/13 02:48:15;;;;;;;20.75;14.85;;;;;;;5.74;74.94;99773.25;5043633;28;20040;-71
2020/12/13 02:50:41;;;;;;;22.55;14.48;;;;;;;5.56;76.00;99778.47;5042838;28;20044;-70
2020/12/13 02:53:06;;;;;;;19.85;14.93;;;;;;;5.57;76.60;99774.97;5040067;28;20466;-71
2020/12/13 02:55:31;;;;;;;20.08;15.00;;;;;;;5.62;76.51;99779.31;5040270;28;20590;-70
2020/12/13 02:57:57;;;;;;;19.90;14.93;;;;;;;5.67;75.90;99781.97;5043046;28;20089;-70
2020/12/13 03:00:22;;;;;;;21.88;16.42;;;;;;;5.64;75.40;99781.97;5043441;28;20487;-71
2020/12/13 03:02:47;;;;;;;22.73;16.60;;;;;;;5.66;75.62;99781.09;5040648;28;20044;-71
2020/12/13 03:05:13;;;;;;;23.15;17.30;;;;;;;5.70;75.43;99780.22;5039767;28;20061;-71
2020/12/13 03:07:38;;;;;;;20.58;15.18;;;;;;;5.66;75.62;99785.47;5040399;28;20026;-71
2020/12/13 03:10:03;;;;;;;24.35;18.25;;;;;;;5.62;75.82;99792.41;5043212;28;20400;-71
2020/12/13 03:12:29;;;;;;;23.50;16.70;;;;;;;5.61;76.04;99788.06;5043218;28;20419;-71
2020/12/13 03:14:54;;;;;;;21.92;15.93;;;;;;;5.56;75.93;99795.03;5040823;28;20037;-71
2020/12/13 03:17:20;;;;;;;23.23;16.25;;;;;;;5.51;76.08;99802.00;5039729;28;20061;-71
2020/12/13 03:19:46;;;;;;;21.13;14.98;;;;;;;5.52;76.81;99800.25;5040977;28;20033;-70
2020/12/13 03:22:11;;;;;;;21.85;15.93;;;;;;;5.47;76.46;99801.09;5025199;28;20487;-70
2020/12/13 03:24:37;;;;;;;20.42;15.68;;;;;;;5.53;76.33;99805.50;5043073;28;20029;-71
2020/12/13 03:27:02;;;;;;;21.02;15.30;;;;;;;5.57;75.83;99806.38;5039813;28;20033;-70
2020/12/13 03:29:27;;;;;;;21.75;16.30;;;;;;;5.59;76.49;99810.75;5039711;28;20058;-71
2020/12/13 03:31:53;;;;;;;21.27;15.63;;;;;;;5.65;76.12;99807.25;5049444;28;20041;-70
2020/12/13 03:34:18;;;;;;;21.67;15.70;;;;;;;5.64;75.85;99819.47;5054549;28;20040;-71
2020/12/13 03:36:43;;;;;;;23.23;16.23;;;;;;;5.62;76.26;99820.34;5045420;28;20065;-71
2020/12/13 03:39:09;;;;;;;22.60;16.42;;;;;;;5.45;77.27;99821.19;5042881;28;20069;-70
2020/12/13 03:41:34;;;;;;;19.05;14.63;;;;;;;5.45;77.04;99817.69;5042918;28;20041;-70
2020/12/13 03:43:59;;;;;;;22.05;16.67;;;;;;;5.47;77.45;99824.66;5039356;28;20041;-70
2020/12/13 03:46:25;;;;;;;22.92;17.00;;;;;;;5.52;77.28;99818.56;5039408;28;20037;-71
2020/12/13 03:48:50;;;;;;;22.00;15.20;;;;;;;5.59;77.13;99828.19;5041396;28;20041;-70
2020/12/13 03:51:15;;;;;;;20.15;14.38;;;;;;;5.60;76.98;99816.84;5042713;28;20033;-71
2020/12/13 03:53:41;;;;;;;24.58;18.45;;;;;;;5.63;76.44;99822.09;5041816;28;20036;-70
2020/12/13 03:56:06;;;;;;;19.23;15.20;;;;;;;5.69;76.12;99828.22;5039380;28;20037;-71
2020/12/13 03:58:31;;;;;;;20.25;15.10;;;;;;;5.69;76.44;99833.47;5039325;28;20086;-71
2020/12/13 04:00:57;;;;;;;20.88;14.70;;;;;;;5.69;76.03;99830.84;5041985;28;20107;-71
2020/12/13 04:03:22;;;;;;;17.65;13.48;;;;;;;5.50;77.49;99834.25;5042500;28;20127;-71
2020/12/13 04:05:47;;;;;;;18.17;13.40;;;;;;;5.36;78.25;99831.59;5041101;28;20072;-71
2020/12/13 04:08:12;;;;;;;18.23;13.75;;;;;;;5.34;78.63;99832.47;5039213;28;20099;-71
2020/12/13 04:10:38;;;;;;;18.42;15.02;;;;;;;5.35;78.26;99835.09;5039365;28;20034;-71
2020/12/13 04:13:03;;;;;;;19.60;14.45;;;;;;;5.33;78.18;99833.34;5045716;28;20397;-71
2020/12/13 04:15:28;;;;;;;22.77;16.38;;;;;;;5.39;78.20;99833.34;5034984;28;20553;-71
2020/12/13 04:17:54;;;;;;;22.13;14.65;;;;;;;5.39;77.94;99835.97;5046450;28;20037;-71
2020/12/13 04:20:19;;;;;;;23.35;16.95;;;;;;;5.46;78.11;99837.75;5046406;28;20086;-70
2020/12/13 04:22:44;;;;;;;22.42;17.58;;;;;;;5.54;77.71;99843.88;5044551;28;20094;-71
2020/12/13 04:25:10;;;;;;;25.67;18.95;;;;;;;5.50;77.77;99836.88;5050131;28;20410;-71
2020/12/13 04:27:35;;;;;;;23.05;17.33;;;;;;;5.50;77.42;99842.09;5021782;28;20079;-71
2020/12/13 04:30:01;;;;;;;24.00;18.13;;;;;;;5.57;77.26;99843.88;5025070;28;20060;-71
2020/12/13 04:32:26;;;;;;;25.80;19.52;;;;;;;5.67;76.76;99845.66;5042717;28;20542;-71
2020/12/13 04:34:51;;;;;;;26.67;18.15;;;;;;;5.67;76.63;99848.28;5045011;28;20424;-71
2020/12/13 04:37:18;;;;;;;24.65;18.80;;;;;;;5.68;76.54;99857.00;5046281;28;20648;-70
2020/12/13 04:39:43;;;;;;;23.02;16.85;;;;;;;5.67;76.40;99845.66;5045020;28;20048;-71
2020/12/13 04:42:09;;;;;;;23.80;16.67;;;;;;;5.74;76.45;99856.13;5042608;28;20037;-70
2020/12/13 04:44:35;;;;;;;23.23;16.05;;;;;;;5.75;76.64;99861.41;5042777;28;20068;-70
2020/12/13 04:47:06;;;;;;;22.60;16.23;;;;;;;5.78;76.12;99863.16;5042698;28;20087;-71
2020/12/13 04:49:33;;;;;;;25.88;17.98;;;;;;;5.81;76.26;99864.03;5021011;28;20033;-71
2020/12/13 04:52:00;;;;;;;26.30;18.77;;;;;;;5.87;76.25;99863.19;5042336;28;20038;-71
2020/12/13 04:54:27;;;;;;;25.23;18.52;;;;;;;5.89;75.71;99858.81;5042448;28;20041;-71
2020/12/13 04:56:55;;;;;;;24.83;18.40;;;;;;;5.92;75.84;99851.84;5044803;28;20099;-71
2020/12/13 04:59:20;;;;;;;26.35;20.00;;;;;;;5.92;76.16;99853.56;5045661;28;20574;-71
2020/12/13 05:01:46;;;;;;;26.55;18.58;;;;;;;5.93;76.00;99851.00;5044422;28;20152;-71
2020/12/13 05:04:12;;;;;;;26.77;18.92;;;;;;;5.96;75.78;99857.97;5042132;28;20025;-71
2020/12/13 05:06:42;;;;;;;25.73;18.38;;;;;;;6.01;76.44;99861.50;5042534;28;20040;-71
2020/12/13 05:09:09;;;;;;;24.70;18.23;;;;;;;6.05;75.80;99863.25;5027867;28;20122;-71
2020/12/13 05:11:34;;;;;;;29.88;20.75;;;;;;;5.93;76.14;99868.44;5045564;28;20033;-71
2020/12/13 05:14:02;;;;;;;28.92;19.63;;;;;;;5.96;76.41;99873.69;5041981;28;20059;-71
2020/12/13 05:16:27;;;;;;;28.20;20.45;;;;;;;5.95;76.21;99866.72;5042175;28;20037;-71
2020/12/13 05:18:52;;;;;;;26.15;18.42;;;;;;;5.98;76.32;99873.72;5044180;28;20040;-71
2020/12/13 05:21:22;;;;;;;26.40;19.08;;;;;;;5.98;76.10;99876.34;5045414;28;20040;-71
2020/12/13 05:23:48;;;;;;;25.80;18.58;;;;;;;6.00;76.19;99882.44;5043562;28;20045;-70
2020/12/13 05:26:20;;;;;;;29.05;19.52;;;;;;;5.97;76.56;99883.28;5040835;28;20062;-71
2020/12/13 05:28:50;;;;;;;28.02;20.05;;;;;;;5.97;76.37;99879.81;5043368;28;20041;-70
2020/12/13 05:31:18;;;;;;;26.05;18.17;;;;;;;5.94;76.73;99878.06;5045172;28;20388;-71
2020/12/13 05:33:51;;;;;;;30.30;20.40;;;;;;;5.88;76.72;99883.25;5043967;28;20511;-71
2020/12/13 05:36:17;;;;;;;26.58;18.90;;;;;;;5.86;77.19;99880.63;5018101;28;20102;-71
2020/12/13 05:38:43;;;;;;;28.15;20.67;;;;;;;5.89;76.85;99882.38;5041723;28;20568;-70
2020/12/13 05:41:11;;;;;;;29.30;19.20;;;;;;;5.94;76.38;99885.91;5041688;28;20037;-70
2020/12/13 05:43:51;;;;;;;25.98;18.10;;;;;;;5.93;76.46;99889.38;5041400;28;20466;-71
2020/12/13 05:51:38;;;;;;;31.58;22.23;;;;;;;5.90;76.31;99895.47;5041421;28;20076;-71
2020/12/13 05:54:11;;;;;;;30.52;21.13;;;;;;;5.86;76.81;99887.59;5041202;28;20441;-71
2020/12/13 05:56:38;;;;;;;29.60;18.98;;;;;;;5.86;76.58;99892.84;5041563;28;20049;-71
2020/12/13 05:59:03;;;;;;;28.70;19.90;;;;;;;5.76;77.35;99891.06;5044661;28;20067;-71
2020/12/13 06:01:30;;;;;;;26.10;18.10;;;;;;;5.76;77.03;99894.56;5026770;28;20033;-71
2020/12/13 06:03:59;;;;;;;34.50;23.02;;;;;;;5.83;77.17;99895.47;5041713;28;20068;-71
2020/12/13 06:06:25;;;;;;;26.88;19.83;;;;;;;5.90;77.10;99892.00;5041242;28;20090;-71
2020/12/13 06:09:02;;;;;;;32.88;21.73;;;;;;;5.91;76.73;99902.47;5043019;28;20433;-71
2020/12/13 06:11:41;;;;;;;26.00;18.58;;;;;;;5.86;76.60;99904.19;5026758;28;20033;-71
2020/12/13 06:14:09;;;;;;;24.70;17.80;;;;;;;5.83;76.79;99900.69;5040666;28;20176;-71
2020/12/13 06:16:34;;;;;;;26.80;19.50;;;;;;;5.79;76.88;99912.91;5043644;28;20041;-70
2020/12/13 06:19:01;;;;;;;31.48;21.40;;;;;;;5.77;77.04;99916.41;5044398;28;20032;-71
2020/12/13 06:21:26;;;;;;;26.20;18.50;;;;;;;5.81;76.52;99915.53;5044239;28;20045;-71
2020/12/13 06:23:54;;;;;;;26.45;19.40;;;;;;;5.84;77.32;99924.28;5041894;28;20041;-71
2020/12/13 06:26:20;;;;;;;27.20;19.65;;;;;;;5.86;76.65;99922.53;5040872;28;20040;-71
2020/12/13 06:28:46;;;;;;;26.17;18.75;;;;;;;5.87;76.80;99920.81;5041937;28;20457;-71
2020/12/13 06:31:17;;;;;;;27.40;19.20;;;;;;;5.83;76.79;99924.25;5044083;28;20041;-68
2020/12/13 06:33:43;;;;;;;23.85;17.55;;;;;;;5.85;77.37;99930.38;5038903;28;20045;-69
2020/12/13 06:36:09;;;;;;;24.02;17.50;;;;;;;5.86;76.23;99933.00;5043226;28;20039;-69
2020/12/13 06:38:36;;;;;;;27.08;19.20;;;;;;;5.84;76.53;99929.53;5043998;28;20112;-69
2020/12/13 06:41:13;;;;;;;23.15;16.73;;;;;;;5.89;76.01;99942.59;5043903;28;20071;-68
2020/12/13 06:43:40;;;;;;;21.58;15.88;;;;;;;5.84;76.76;99947.84;5043406;28;20033;-68
2020/12/13 06:46:13;;;;;;;23.45;16.50;;;;;;;5.89;76.29;99948.75;5040479;28;20411;-68
2020/12/13 06:48:44;;;;;;;24.80;18.10;;;;;;;5.93;76.01;99947.00;5040566;28;20487;-69
2020/12/13 06:51:10;;;;;;;24.05;16.63;;;;;;;5.97;75.53;99955.75;5043619;28;20115;-68
2020/12/13 06:53:37;;;;;;;22.60;16.85;;;;;;;5.98;75.59;99965.41;5043544;28;20041;-69
2020/12/13 06:56:11;;;;;;;20.73;16.30;;;;;;;6.03;75.23;99959.28;5040534;28;20036;-69
2020/12/13 06:58:55;;;;;;;20.92;16.20;;;;;;;6.07;75.31;99957.53;5041797;28;20313;-69
2020/12/13 07:01:23;;;;;;;23.30;16.35;;;;;;;6.14;75.24;99967.19;5040667;28;20075;-68
2020/12/13 07:03:49;;;;;;;22.38;16.48;;;;;;;6.18;75.09;99968.06;5036885;28;20060;-68
2020/12/13 07:06:19;;;;;;;23.00;16.13;;;;;;;6.21;74.54;99965.44;5043432;28;20040;-69
2020/12/13 07:08:54;;;;;;;23.35;16.50;;;;;;;6.24;74.18;99973.34;5042306;28;20033;-68
2020/12/13 07:11:23;;;;;;;24.27;18.00;;;;;;;6.21;74.20;99973.28;5039535;28;20444;-69
2020/12/13 07:13:49;;;;;;;23.92;17.63;;;;;;;6.21;74.72;99971.56;5041114;28;20172;-69
2020/12/13 07:16:34;;;;;;;21.50;16.15;;;;;;;6.19;74.45;99980.31;5025661;28;20041;-69
2020/12/13 07:19:06;;;;;;;21.85;15.80;;;;;;;6.16;73.95;99981.16;5040058;28;20052;-69
2020/12/13 07:21:32;;;;;;;21.67;15.45;;;;;;;6.24;74.53;99987.31;5039618;28;20030;-69
2020/12/13 07:24:00;;;;;;;19.58;15.02;;;;;;;6.31;74.38;99977.69;5043134;28;20048;-69
2020/12/13 07:26:27;;;;;;;20.63;15.20;;;;;;;6.39;74.40;99978.56;5039718;28;20475;-69
2020/12/13 07:28:53;;;;;;;21.77;16.08;;;;;;;6.46;74.20;99987.34;5041789;28;20065;-69
2020/12/13 07:31:19;;;;;;;21.05;15.00;;;;;;;6.48;74.12;99989.09;5042927;28;20037;-68
2020/12/13 07:33:46;;;;;;;19.75;15.40;;;;;;;6.47;73.84;99992.59;5041645;28;20067;-68
2020/12/13 07:36:11;;;;;;;22.88;15.68;;;;;;;6.50;73.80;99992.59;5039331;28;20049;-68
2020/12/13 07:38:39;;;;;;;20.88;15.32;;;;;;;6.46;73.51;100003.06;5040925;28;20404;-69
2020/12/13 07:41:14;;;;;;;19.48;15.30;;;;;;;6.48;73.15;100002.19;5042804;28;20502;-69
2020/12/13 07:43:56;;;;;;;21.00;15.80;;;;;;;6.46;73.59;100005.69;5042260;28;20111;-69
2020/12/13 07:46:22;;;;;;;19.95;15.18;;;;;;;6.44;73.64;100010.91;5039494;28;20041;-69
2020/12/13 07:48:59;;;;;;;20.00;14.77;;;;;;;6.44;73.43;100017.91;5040372;28;20040;-69
2020/12/13 07:51:24;;;;;;;18.10;13.45;;;;;;;6.52;73.47;100027.56;5042561;28;20068;-68
2020/12/13 07:53:49;;;;;;;21.58;14.52;;;;;;;6.53;73.08;100024.06;5040865;28;20067;-69
2020/12/13 07:56:25;;;;;;;19.42;14.60;;;;;;;6.49;73.01;100022.28;5041172;28;20049;-69
2020/12/13 07:58:50;;;;;;;20.88;15.48;;;;;;;6.54;73.08;100025.81;5041538;28;20079;-69
2020/12/13 08:01:16;;;;;;;19.80;14.73;;;;;;;6.60;73.35;100030.19;5042407;28;20407;-68
2020/12/13 08:03:43;;;;;;;21.23;16.08;;;;;;;6.65;72.64;100038.06;5041151;28;20025;-69
2020/12/13 08:06:08;;;;;;;19.77;15.07;;;;;;;6.54;72.75;100033.66;5042905;28;20123;-68
2020/12/13 08:08:44;;;;;;;21.20;15.90;;;;;;;6.50;72.96;100034.56;5042640;28;20462;-68
2020/12/13 08:11:13;;;;;;;22.67;14.98;;;;;;;6.56;72.71;100037.19;5039087;28;20041;-68
2020/12/13 08:13:53;;;;;;;20.55;15.35;;;;;;;6.54;72.96;100046.78;5043711;28;20378;-69
2020/12/13 08:16:18;;;;;;;20.67;15.00;;;;;;;6.60;73.08;100051.16;5038986;28;20037;-69
2020/12/13 08:18:49;;;;;;;19.95;14.70;;;;;;;6.62;72.52;100053.78;5040107;28;20555;-69
2020/12/13 08:21:22;;;;;;;20.70;15.52;;;;;;;6.65;72.99;100051.16;5038026;28;20041;-69
2020/12/13 08:23:48;;;;;;;19.90;15.40;;;;;;;6.65;72.31;100054.66;5040804;28;20079;-69
2020/12/13 08:26:15;;;;;;;21.60;16.25;;;;;;;6.67;72.49;100054.69;5021817;28;20128;-68
2020/12/13 08:28:41;;;;;;;21.10;14.63;;;;;;;6.70;72.76;100066.03;5039509;28;20697;-69
2020/12/13 08:31:13;;;;;;;19.17;15.05;;;;;;;6.78;73.06;100061.69;5039293;28;20492;-70
2020/12/13 08:33:39;;;;;;;19.35;14.57;;;;;;;6.78;72.74;100066.94;5039051;28;20036;-70
2020/12/13 08:36:20;;;;;;;19.08;14.43;;;;;;;6.85;72.09;100067.81;5042522;28;20029;-69
2020/12/13 08:39:08;;;;;;;19.60;14.70;;;;;;;6.88;71.99;100073.06;5040944;28;20029;-69
2020/12/13 08:41:34;;;;;;;19.67;14.00;;;;;;;6.95;72.01;100080.09;5039019;28;20049;-68
2020/12/13 08:44:00;;;;;;;20.35;14.88;;;;;;;6.95;71.49;100082.72;5041724;28;20487;-68
2020/12/13 08:46:37;;;;;;;19.33;14.43;;;;;;;6.94;71.69;100078.34;5042429;28;20032;-69
2020/12/13 08:49:02;;;;;;;24.25;16.63;;;;;;;6.89;72.52;100087.06;5038952;28;20427;-68
2020/12/13 08:51:27;;;;;;;19.98;14.57;;;;;;;6.82;72.18;100094.06;5038645;28;20033;-68
2020/12/13 08:53:57;;;;;;;22.65;15.32;;;;;;;6.82;72.25;100080.94;5040025;28;20522;-68
2020/12/13 08:56:36;;;;;;;20.55;15.75;;;;;;;6.83;72.37;100094.94;5040820;28;20083;-69
2020/12/13 08:59:04;;;;;;;23.05;15.10;;;;;;;6.91;72.46;100090.56;5037421;28;20057;-68
2020/12/13 09:01:40;;;;;;;21.35;14.80;;;;;;;6.96;72.77;100097.56;5049377;28;20064;-69
2020/12/13 09:04:19;;;;;;;20.48;15.23;;;;;;;6.93;71.97;100094.94;5066838;28;20040;-68
2020/12/13 09:07:02;;;;;;;21.33;15.77;;;;;;;6.92;71.86;100103.69;5046603;28;20065;-68
2020/12/13 09:09:32;;;;;;;21.13;16.15;;;;;;;6.95;71.60;100101.06;5044022;28;20126;-68
2020/12/13 09:11:59;;;;;;;22.67;16.25;;;;;;;6.96;72.24;100110.69;5040714;28;20064;-68
2020/12/13 09:14:32;;;;;;;21.35;15.63;;;;;;;6.97;72.37;100112.47;5040248;28;20527;-69
2020/12/13 09:16:59;;;;;;;23.08;16.08;;;;;;;7.05;72.08;100119.44;5043202;28;20037;-69
2020/12/13 09:19:25;;;;;;;21.25;15.40;;;;;;;7.05;72.44;100114.19;5043781;28;20076;-68
2020/12/13 09:21:53;;;;;;;20.77;15.43;;;;;;;7.15;71.63;100110.72;5041826;28;20044;-68
2020/12/13 09:24:22;;;;;;;20.45;15.13;;;;;;;7.22;71.75;100120.34;5041400;28;20060;-68
2020/12/13 09:27:00;;;;;;;22.60;16.90;;;;;;;7.29;71.22;100122.09;5043386;28;20037;-68
2020/12/13 09:29:27;;;;;;;21.23;15.95;;;;;;;7.25;71.26;100123.84;5045404;28;20040;-69
2020/12/13 09:31:53;;;;;;;20.42;16.30;;;;;;;7.30;71.10;100126.47;5042945;28;20065;-69
2020/12/13 09:34:18;;;;;;;22.60;16.90;;;;;;;7.32;70.81;100124.72;5041586;28;20448;-69
2020/12/13 09:36:43;;;;;;;21.27;16.45;;;;;;;7.32;70.94;100116.84;5042700;28;20512;-68
2020/12/13 09:39:09;;;;;;;25.02;17.77;;;;;;;7.34;70.85;100124.75;5045320;28;20068;-69
2020/12/13 09:41:35;;;;;;;29.92;21.20;;;;;;;7.41;70.44;100131.72;5052580;28;20056;-68
2020/12/13 09:44:00;;;;;;;40.65;27.65;;;;;;;7.34;70.69;100124.75;5054089;28;20060;-69
2020/12/13 09:46:25;;;;;;;31.70;21.98;;;;;;;7.35;71.02;100126.47;5055764;28;20492;-69
2020/12/13 09:48:52;;;;;;;23.10;16.92;;;;;;;7.47;70.85;100124.75;5064915;28;20040;-68
2020/12/13 09:51:18;;;;;;;21.25;15.63;;;;;;;7.46;70.10;100115.09;5061185;28;20033;-68
2020/12/13 09:53:45;;;;;;;20.85;16.35;;;;;;;7.47;69.98;100111.63;5045431;28;20510;-68
2020/12/13 09:56:10;;;;;;;20.88;15.73;;;;;;;7.55;70.58;100116.88;5065112;28;20041;-69
2020/12/13 09:58:36;;;;;;;19.67;14.73;;;;;;;7.64;70.16;100110.72;5044801;28;20033;-68
2020/12/13 10:01:01;;;;;;;21.65;16.17;;;;;;;7.73;70.25;100112.44;5041268;28;20029;-69
2020/12/13 10:03:26;;;;;;;20.50;15.07;;;;;;;7.66;70.58;100125.59;5041079;28;20483;-69
2020/12/13 10:06:10;;;;;;;23.10;17.48;;;;;;;7.71;71.12;100119.47;5043313;28;20480;-68
2020/12/13 10:11:19;;;;;;;21.27;16.33;;;;;;;7.86;69.59;100120.34;5041076;28;20033;-69
2020/12/13 10:13:44;;;;;;;19.73;16.08;;;;;;;7.96;69.90;100126.44;5041295;28;20522;-69
2020/12/13 10:16:10;;;;;;;22.65;16.10;;;;;;;8.03;69.55;100116.78;5044472;28;20523;-68
2020/12/13 10:18:36;;;;;;;22.23;16.42;;;;;;;8.00;69.66;100119.44;5026653;28;20492;-69
2020/12/13 10:21:02;;;;;;;22.17;15.93;;;;;;;8.00;69.31;100115.03;5040870;28;20038;-69
2020/12/13 10:23:27;;;;;;;22.27;17.45;;;;;;;8.07;68.81;100114.16;5040575;28;20095;-69
2020/12/13 10:25:53;;;;;;;21.60;16.35;;;;;;;8.08;69.41;100115.03;5043013;28;20045;-69
2020/12/13 10:28:19;;;;;;;19.05;15.50;;;;;;;8.12;68.98;100122.00;5044230;28;20040;-68
2020/12/13 10:30:48;;;;;;;22.27;16.23;;;;;;;7.99;68.84;100120.28;5043094;28;20040;-69
2020/12/13 10:33:13;;;;;;;19.50;14.93;;;;;;;7.91;69.49;100125.56;5032659;28;20060;-69
2020/12/13 10:35:39;;;;;;;20.35;15.50;;;;;;;7.89;69.09;100127.34;5043134;28;20564;-68
2020/12/13 10:38:04;;;;;;;21.80;15.73;;;;;;;7.88;69.52;100122.94;5040609;28;20065;-69
2020/12/13 10:40:29;;;;;;;21.13;16.42;;;;;;;7.87;69.66;100122.06;5040465;28;20103;-68
2020/12/13 10:42:55;;;;;;;21.02;14.63;;;;;;;7.81;68.74;100123.84;5042757;28;20037;-69
2020/12/13 10:45:20;;;;;;;20.70;14.23;;;;;;;7.71;69.54;100128.22;5043959;28;20032;-69
2020/12/13 10:47:45;;;;;;;18.52;14.27;;;;;;;7.79;69.53;100134.34;5042787;28;20041;-69
2020/12/13 10:50:11;;;;;;;19.08;14.20;;;;;;;7.71;69.02;100125.59;5040160;28;20392;-69
2020/12/13 10:52:36;;;;;;;19.70;14.93;;;;;;;7.77;68.71;100124.72;5040075;28;20577;-69
2020/12/13 10:55:01;;;;;;;18.40;13.80;;;;;;;7.83;69.54;100128.22;5043622;28;20483;-68
2020/12/13 10:57:28;;;;;;;20.75;14.75;;;;;;;7.86;69.15;100129.97;5043755;28;20520;-69
2020/12/13 10:59:53;;;;;;;20.17;15.48;;;;;;;7.77;69.10;100127.34;5041219;28;20033;-68
2020/12/13 11:02:18;;;;;;;19.98;15.43;;;;;;;7.74;69.28;100125.59;5039854;28;20032;-69
2020/12/13 11:04:43;;;;;;;20.33;15.30;;;;;;;7.84;69.54;100129.09;5040928;28;20087;-69
2020/12/13 11:07:09;;;;;;;18.98;14.45;;;;;;;7.90;69.48;100129.06;5043495;28;20039;-68
2020/12/13 11:09:34;;;;;;;19.33;14.88;;;;;;;7.87;69.44;100143.09;5043481;28;20045;-68
2020/12/13 11:11:59;;;;;;;19.42;15.32;;;;;;;7.76;69.96;100138.75;5022284;28;20393;-69
2020/12/13 11:14:25;;;;;;;18.52;13.63;;;;;;;7.81;70.01;100132.59;5039779;28;20030;-69
2020/12/13 11:16:50;;;;;;;19.33;14.20;;;;;;;7.84;69.92;100137.84;5041748;28;20037;-68
2020/12/13 11:19:15;;;;;;;19.85;14.52;;;;;;;7.87;69.88;100134.34;5043172;28;20039;-68
2020/12/13 11:21:47;;;;;;;21.48;15.13;;;;;;;7.94;69.43;100135.19;5042620;28;20037;-68
2020/12/13 11:24:12;;;;;;;20.67;15.63;;;;;;;7.92;69.77;100140.47;5038735;28;20049;-69
2020/12/13 11:26:38;;;;;;;20.02;15.45;;;;;;;7.92;69.55;100144.84;5039809;28;20029;-69
2020/12/13 11:29:03;;;;;;;22.30;15.77;;;;;;;7.93;69.99;100144.81;5046482;28;20112;-69
2020/12/13 11:31:29;;;;;;;21.35;16.05;;;;;;;7.90;69.86;100143.09;5061601;28;20502;-69